EPMO Airport Information

Runway Information
Runway 08 Length 8202 ft width 147 ft
Elevation 338 ft Threshold ft Heading 82
Runway 26 Length 8202 ft Width 147 ft
Elevation 341 ft Threshold ft Heading 262
Airport Frequencies
Type INFO Name INFO Frequency 124.5 MHZ
Airport Navaids
Airport Weather Information & NOTAM
ADDS - METARS form results

(1802 UTC 03 July 2022)
Data provider http://aviationweather.gov/metar/data/
 
METAR text: EPMO 031800Z VRB01KT CAVOK 25/13 Q1018
Conditions at: EPMO (MODLIN , PL) observed 1800 UTC 03 July 2022
Temperature: 25.0°C (77°F)
Dewpoint: 13.0°C (55°F) [RH = 47%]
Pressure (altimeter): 30.06 inches Hg (1018.0 mb)
Winds: variable direction winds at 1 MPH (1 knots; 0.5 m/s)
Visibility: 6 or more miles (10+ km)
Ceiling: ceiling and visibility are OK
Clouds: unknown
Weather: no significant weather observed at this time

METAR text: EPMO 031730Z 28003KT 250V310 CAVOK 26/12 Q1018
Conditions at: EPMO (MODLIN , PL) observed 1730 UTC 03 July 2022
Temperature: 26.0°C (79°F)
Dewpoint: 12.0°C (54°F) [RH = 42%]
Pressure (altimeter): 30.06 inches Hg (1018.0 mb)
Winds: from the W (280 degrees) at 3 MPH (3 knots; 1.5 m/s)
Visibility: 6 or more miles (10+ km)
Ceiling: ceiling and visibility are OK
Clouds: unknown
Weather: no significant weather observed at this time

Forecast for: EPMO (MODLIN , PL)
Text: TAF EPMO 031730Z 0318/0418 VRB02KT CAVOK
Forecast period: 1800 UTC 03 July 2022 to 0700 UTC 04 July 2022
Forecast type: FROM: standard forecast or significant change
Winds: variable direction winds at 2 MPH (2 knots; 1.0 m/s)
Visibility: 6 or more miles (10+ km)
Ceiling: unknown
Clouds: missing
Weather: NSW  (no significant weather)
Text: BECMG 0407/0409 26010KT
Forecast period: 0700 to 1800 UTC 04 July 2022
Forecast type: BECOMING: Conditions expected to become as follows by 0900 UTC 04 July 2022
Winds: from the W (260 degrees) at 12 MPH (10 knots; 5.1 m/s)
Visibility: 6 or more miles (10+ km)
Ceiling: unknown
Clouds: missing
Weather: NSW  (no significant weather)
Text: TEMPO 0413/0418 SCT040CB
Forecast period: 1300 to 1800 UTC 04 July 2022
Forecast type: TEMPORARY: The following changes expected for less than half the time period
Visibility: missing
Ceiling: at least 12,000 feet AGL
Clouds: scattered clouds at 4000 feet AGL
Weather: no significant weather forecast for this period
Text: PROB40
Forecast period: 1500 to 1800 UTC 04 July 2022
Forecast type: TEMPORARY: The following changes expected for less than half the time period
Visibility: missing
Ceiling: unknown
Clouds: missing
Weather: -TSRA  (light rain associated with thunderstorm(s))